createdAt,value
2022-11-27T00:01:36.046Z,13.52
2022-11-27T00:04:07.560Z,10.52
2022-11-27T00:06:36.091Z,11.70
2022-11-27T00:09:08.350Z,12.10
2022-11-27T00:16:05.127Z,10.88
2022-11-27T00:18:33.270Z,10.82
2022-11-27T00:21:12.935Z,11.07
2022-11-27T00:23:40.709Z,11.02
2022-11-27T00:26:08.679Z,10.23
2022-11-27T00:28:39.366Z,9.38
2022-11-27T00:31:13.393Z,12.70
2022-11-27T00:33:43.495Z,10.43
2022-11-27T00:40:30.365Z,10.00
2022-11-27T00:42:57.667Z,10.25
2022-11-27T00:45:25.237Z,9.65
2022-11-27T00:47:52.668Z,8.90
2022-11-27T00:50:20.132Z,9.65
2022-11-27T00:52:50.127Z,8.55
2022-11-27T00:55:17.725Z,9.10
2022-11-27T00:57:47.627Z,8.75
2022-11-27T01:00:15.749Z,7.90
2022-11-27T01:02:45.480Z,8.27
2022-11-27T01:10:04.244Z,9.70
2022-11-27T01:12:31.787Z,7.95
2022-11-27T01:14:59.167Z,7.38
2022-11-27T01:17:26.949Z,7.75
2022-11-27T01:19:54.363Z,8.57
2022-11-27T01:22:21.834Z,7.45
2022-11-27T01:24:51.874Z,7.88
2022-11-27T01:27:19.404Z,6.85
2022-11-27T01:34:09.053Z,7.47
2022-11-27T01:36:36.821Z,6.88
2022-11-27T01:39:05.538Z,7.88
2022-11-27T01:41:41.481Z,8.60
2022-11-27T01:44:24.182Z,7.72
2022-11-27T01:46:53.427Z,7.93
2022-11-27T01:49:40.061Z,7.55
2022-11-27T01:52:19.236Z,8.27
2022-11-27T01:59:12.744Z,7.28
2022-11-27T02:01:40.186Z,7.10
2022-11-27T02:04:07.871Z,7.88
2022-11-27T02:06:35.390Z,8.18
2022-11-27T02:09:03.996Z,6.55
2022-11-27T02:11:42.538Z,10.57
2022-11-27T02:14:15.567Z,9.15
2022-11-27T02:17:03.698Z,8.13
2022-11-27T02:24:20.969Z,7.35
2022-11-27T02:27:25.911Z,9.57
2022-11-27T02:29:59.540Z,8.10
2022-11-27T02:32:40.727Z,8.10
2022-11-27T02:35:26.487Z,7.40
2022-11-27T02:38:01.174Z,9.07
2022-11-27T02:48:23.392Z,7.32
2022-11-27T02:50:52.398Z,7.75
2022-11-27T02:53:25.835Z,8.55
2022-11-27T02:55:55.038Z,7.38
2022-11-27T02:58:27.336Z,6.95
2022-11-27T03:00:56.880Z,7.10
2022-11-27T03:03:29.699Z,6.28
2022-11-27T03:06:06.078Z,9.20
2022-11-27T03:08:44.195Z,6.80
2022-11-27T03:15:42.484Z,7.95
2022-11-27T03:18:29.501Z,9.65
2022-11-27T03:21:28.966Z,7.20
2022-11-27T03:23:58.358Z,7.22
2022-11-27T03:26:28.854Z,7.13
2022-11-27T03:29:02.677Z,7.10
2022-11-27T03:31:33.090Z,8.75
2022-11-27T03:34:02.179Z,7.25
2022-11-27T03:41:02.985Z,6.38
2022-11-27T03:43:41.745Z,6.28
2022-11-27T03:46:17.561Z,6.70
2022-11-27T03:49:20.032Z,6.75
2022-11-27T03:52:04.010Z,6.22
2022-11-27T03:54:44.505Z,6.53
2022-11-27T03:57:23.309Z,7.10
2022-11-27T03:59:56.827Z,6.72
2022-11-27T04:02:40.520Z,7.25
2022-11-27T04:09:35.175Z,7.10
2022-11-27T04:12:02.966Z,8.43
2022-11-27T04:14:32.410Z,8.10
2022-11-27T04:16:59.871Z,7.13
2022-11-27T04:19:27.266Z,7.72
2022-11-27T04:26:52.155Z,5.50
2022-11-27T04:29:19.641Z,6.28
2022-11-27T04:31:47.195Z,7.47
2022-11-27T04:34:14.756Z,5.47
2022-11-27T04:36:42.585Z,6.18
2022-11-27T04:39:09.964Z,6.07
2022-11-27T04:41:37.339Z,6.55
2022-11-27T04:44:07.129Z,6.15
2022-11-27T04:46:34.897Z,5.75
2022-11-27T04:49:02.394Z,6.25
2022-11-27T04:51:30.213Z,6.13
2022-11-27T04:53:57.705Z,6.15
2022-11-27T04:56:25.153Z,8.07
2022-11-27T05:03:14.150Z,6.85
2022-11-27T05:05:41.597Z,6.60
2022-11-27T05:08:10.215Z,5.90
2022-11-27T05:10:37.620Z,5.93
2022-11-27T05:13:04.914Z,6.93
2022-11-27T05:15:34.609Z,6.50
2022-11-27T05:18:04.305Z,8.00
2022-11-27T05:20:33.924Z,5.72
2022-11-27T05:27:22.070Z,6.55
2022-11-27T05:29:49.459Z,5.63
2022-11-27T05:32:17.055Z,5.75
2022-11-27T05:34:44.429Z,5.78
2022-11-27T05:37:19.202Z,6.00
2022-11-27T05:39:47.504Z,5.53
2022-11-27T05:42:14.872Z,6.28
2022-11-27T05:44:47.215Z,6.28
2022-11-27T05:47:17.061Z,5.30
2022-11-27T05:49:45.872Z,7.03
2022-11-27T05:56:33.288Z,4.80
2022-11-27T05:59:02.860Z,5.80
2022-11-27T06:01:30.936Z,5.70
2022-11-27T06:04:01.744Z,4.50
2022-11-27T06:06:32.685Z,6.93
2022-11-27T06:09:02.379Z,4.72
2022-11-27T06:11:29.665Z,5.45
2022-11-27T06:13:56.992Z,4.93
2022-11-27T06:16:24.953Z,5.38
2022-11-27T06:18:54.239Z,5.43
2022-11-27T06:21:27.338Z,4.93
2022-11-27T06:23:58.899Z,5.45
2022-11-27T06:26:28.818Z,5.18
2022-11-27T06:28:57.707Z,4.88
2022-11-27T06:31:27.990Z,5.03
2022-11-27T06:33:56.648Z,5.60
2022-11-27T06:36:32.151Z,4.93
2022-11-27T06:39:02.194Z,4.97
2022-11-27T06:41:32.421Z,5.45
2022-11-27T06:44:00.839Z,6.03
2022-11-27T06:46:30.192Z,5.43
2022-11-27T06:49:01.020Z,4.03
2022-11-27T06:51:33.362Z,5.32
2022-11-27T06:54:02.093Z,5.45
2022-11-27T06:56:31.199Z,5.15
2022-11-27T06:59:00.957Z,4.32
2022-11-27T07:01:30.897Z,4.65
2022-11-27T07:04:00.563Z,5.50
2022-11-27T07:06:28.694Z,5.60
2022-11-27T07:08:56.252Z,6.25
2022-11-27T07:11:26.714Z,5.80
2022-11-27T07:13:59.887Z,5.22
2022-11-27T07:16:29.183Z,5.65
2022-11-27T07:19:00.859Z,6.35
2022-11-27T07:21:29.028Z,5.85
2022-11-27T07:28:27.009Z,5.20
2022-11-27T07:30:55.970Z,5.10
2022-11-27T07:33:24.468Z,5.57
2022-11-27T07:36:10.402Z,6.60
2022-11-27T07:38:39.172Z,5.50
2022-11-27T07:41:07.510Z,8.13
2022-11-27T07:43:35.446Z,7.05
2022-11-27T07:46:08.402Z,11.05
2022-11-27T07:52:50.408Z,7.15
2022-11-27T07:55:17.932Z,7.25
2022-11-27T07:57:45.530Z,7.82
2022-11-27T08:00:13.518Z,7.72
2022-11-27T08:02:41.035Z,7.93
2022-11-27T08:05:12.955Z,8.77
2022-11-27T08:07:41.534Z,6.93
2022-11-27T08:10:09.148Z,16.75
2022-11-27T08:17:01.904Z,8.35
2022-11-27T08:19:30.059Z,16.70
2022-11-27T08:22:00.317Z,8.73
2022-11-27T08:24:27.715Z,7.70
2022-11-27T08:26:55.176Z,6.13
2022-11-27T08:29:22.640Z,7.97
2022-11-27T08:31:50.209Z,7.25
2022-11-27T08:34:17.648Z,8.20
2022-11-27T08:41:16.416Z,9.57
2022-11-27T08:43:44.108Z,7.70
2022-11-27T08:46:11.988Z,7.47
2022-11-27T08:48:40.243Z,9.18
2022-11-27T08:51:12.739Z,8.95
2022-11-27T08:53:41.862Z,8.20
2022-11-27T08:56:21.549Z,8.10
2022-11-27T08:58:49.565Z,11.75
2022-11-27T09:01:19.137Z,8.60
2022-11-27T09:03:46.922Z,9.52
2022-11-27T09:06:17.637Z,7.95
2022-11-27T09:08:45.722Z,9.40
2022-11-27T09:11:15.213Z,9.27
2022-11-27T09:18:28.073Z,11.13
2022-11-27T09:21:00.570Z,8.63
2022-11-27T09:23:29.363Z,10.73
2022-11-27T09:26:03.155Z,8.25
2022-11-27T09:28:32.108Z,8.27
2022-11-27T09:31:02.249Z,8.35
2022-11-27T09:33:32.291Z,9.02
2022-11-27T09:36:05.472Z,8.13
2022-11-27T09:38:33.269Z,7.85
2022-11-27T09:41:07.466Z,8.52
2022-11-27T09:43:42.513Z,8.65
2022-11-27T09:46:17.722Z,8.35
2022-11-27T09:48:49.319Z,7.20
2022-11-27T09:51:37.002Z,7.32
2022-11-27T09:54:16.022Z,5.78
2022-11-27T09:56:48.155Z,7.55
2022-11-27T09:59:19.236Z,8.55
2022-11-27T10:01:50.832Z,7.32
2022-11-27T10:04:21.169Z,8.10
2022-11-27T10:07:03.932Z,6.40
2022-11-27T10:09:56.330Z,5.77
2022-11-27T10:12:42.431Z,9.48
2022-11-27T10:15:19.051Z,7.75
2022-11-27T10:18:02.775Z,8.00
2022-11-27T10:20:51.433Z,7.40
2022-11-27T10:23:51.702Z,6.20
2022-11-27T10:26:32.090Z,7.05
2022-11-27T10:29:11.057Z,8.52
2022-11-27T10:31:54.268Z,7.20
2022-11-27T10:34:41.902Z,6.72
2022-11-27T10:37:28.266Z,7.80
2022-11-27T10:40:16.342Z,6.50
2022-11-27T10:42:55.865Z,6.82
2022-11-27T10:45:47.011Z,7.55
2022-11-27T10:48:15.525Z,6.50
2022-11-27T10:50:43.896Z,5.65
2022-11-27T10:53:32.806Z,6.95
2022-11-27T10:56:08.534Z,6.15
2022-11-27T10:58:40.228Z,7.72
2022-11-27T11:01:09.587Z,7.32
2022-11-27T11:03:37.638Z,6.68
2022-11-27T11:06:22.690Z,6.20
2022-11-27T11:09:31.945Z,7.03
2022-11-27T11:12:17.476Z,7.05
2022-11-27T11:14:54.009Z,7.20
2022-11-27T11:17:34.703Z,11.75
2022-11-27T11:20:25.506Z,10.45
2022-11-27T11:27:00.936Z,13.30
2022-11-27T11:34:08.894Z,16.25
2022-11-27T11:37:56.647Z,18.08
2022-11-27T11:41:16.173Z,17.00
2022-11-27T11:52:58.679Z,20.20
2022-11-27T12:00:32.937Z,21.80
2022-11-27T12:15:59.588Z,14.38
2022-11-27T12:30:36.194Z,10.75
2022-11-27T12:34:13.711Z,12.80
2022-11-27T12:53:06.182Z,7.50
2022-11-27T12:56:31.901Z,7.03
2022-11-27T12:59:04.727Z,6.30
2022-11-27T13:01:47.881Z,7.07
2022-11-27T13:04:24.586Z,5.57
2022-11-27T13:06:59.538Z,6.47
2022-11-27T13:09:42.670Z,6.47
2022-11-27T13:12:17.473Z,5.10
2022-11-27T13:14:52.896Z,8.10
2022-11-27T13:17:21.483Z,7.30
2022-11-27T13:19:54.169Z,7.85
2022-11-27T13:22:36.263Z,5.65
2022-11-27T13:25:04.821Z,5.53
2022-11-27T13:27:39.599Z,7.57
2022-11-27T13:30:11.999Z,5.45
2022-11-27T13:32:49.823Z,6.28
2022-11-27T13:35:26.929Z,8.50
2022-11-27T13:38:12.906Z,6.78
2022-11-27T13:40:43.626Z,5.75
2022-11-27T13:43:31.330Z,6.40
2022-11-27T13:46:19.525Z,5.35
2022-11-27T13:48:53.467Z,7.55
2022-11-27T13:51:35.413Z,5.53
2022-11-27T13:54:22.285Z,6.40
2022-11-27T13:56:52.039Z,5.07
2022-11-27T13:59:22.650Z,5.30
2022-11-27T14:02:03.307Z,5.93
2022-11-27T14:04:34.045Z,5.95
2022-11-27T14:07:03.936Z,6.85
2022-11-27T14:09:43.255Z,5.70
2022-11-27T14:12:19.216Z,4.25
2022-11-27T14:15:17.962Z,5.75
2022-11-27T14:17:47.547Z,6.47
2022-11-27T14:20:17.955Z,4.70
2022-11-27T14:23:11.690Z,5.15
2022-11-27T14:25:41.622Z,5.00
2022-11-27T14:28:21.806Z,4.80
2022-11-27T14:30:54.769Z,5.63
2022-11-27T14:33:31.216Z,4.70
2022-11-27T14:36:07.690Z,5.75
2022-11-27T14:38:35.504Z,4.82
2022-11-27T14:41:17.675Z,5.65
2022-11-27T14:43:45.259Z,5.90
2022-11-27T14:46:50.157Z,5.00
2022-11-27T14:49:24.155Z,5.13
2022-11-27T14:51:52.645Z,5.25
2022-11-27T14:54:25.684Z,4.65
2022-11-27T14:56:56.713Z,5.32
2022-11-27T14:59:25.043Z,5.03
2022-11-27T15:02:15.429Z,5.13
2022-11-27T15:04:44.733Z,11.15
2022-11-27T15:07:22.969Z,8.63
2022-11-27T15:09:54.308Z,4.60
2022-11-27T15:12:32.420Z,4.70
2022-11-27T15:15:03.615Z,7.82
2022-11-27T15:17:34.423Z,5.50
2022-11-27T15:20:05.102Z,5.55
2022-11-27T15:22:44.531Z,5.22
2022-11-27T15:25:54.783Z,5.35
2022-11-27T15:28:40.110Z,4.65
2022-11-27T15:31:34.854Z,5.20
2022-11-27T15:34:02.507Z,4.80
2022-11-27T15:36:37.183Z,4.97
2022-11-27T15:39:19.444Z,5.75
2022-11-27T15:42:14.659Z,5.13
2022-11-27T15:44:43.063Z,3.83
2022-11-27T15:47:28.869Z,4.85
2022-11-27T15:49:56.561Z,5.63
2022-11-27T15:52:25.362Z,5.82
2022-11-27T15:54:55.408Z,5.07
2022-11-27T15:57:24.493Z,4.72
2022-11-27T15:59:52.446Z,5.82
2022-11-27T16:02:20.198Z,11.10
2022-11-27T16:04:47.688Z,7.00
2022-11-27T16:07:15.610Z,5.38
2022-11-27T16:09:43.789Z,5.47
2022-11-27T16:12:11.342Z,4.78
2022-11-27T16:14:39.337Z,6.20
2022-11-27T16:17:07.189Z,4.68
2022-11-27T16:19:34.736Z,4.18
2022-11-27T16:22:02.321Z,9.75
2022-11-27T16:24:30.131Z,5.82
2022-11-27T16:26:57.741Z,5.60
2022-11-27T16:29:25.275Z,5.30
2022-11-27T16:31:52.926Z,4.43
2022-11-27T16:34:20.530Z,4.50
2022-11-27T16:36:49.075Z,3.95
2022-11-27T16:39:17.639Z,5.47
2022-11-27T16:41:45.291Z,5.20
2022-11-27T16:44:16.201Z,4.32
2022-11-27T16:46:45.015Z,3.78
2022-11-27T16:49:15.851Z,3.85
2022-11-27T16:51:44.429Z,3.95
2022-11-27T16:54:13.660Z,4.10
2022-11-27T16:56:44.295Z,4.55
2022-11-27T16:59:14.927Z,3.85
2022-11-27T17:01:43.530Z,4.13
2022-11-27T17:04:20.040Z,4.68
2022-11-27T17:06:50.045Z,5.20
2022-11-27T17:09:18.388Z,4.85
2022-11-27T17:11:50.587Z,4.13
2022-11-27T17:14:20.659Z,4.18
2022-11-27T17:16:51.651Z,3.72
2022-11-27T17:19:23.094Z,4.28
2022-11-27T17:21:50.699Z,4.70
2022-11-27T17:24:18.773Z,4.68
2022-11-27T17:26:47.849Z,5.57
2022-11-27T17:29:17.827Z,9.20
2022-11-27T17:31:45.626Z,6.60
2022-11-27T17:34:17.051Z,5.78
2022-11-27T17:36:46.076Z,6.40
2022-11-27T17:39:15.489Z,6.72
2022-11-27T17:41:45.325Z,5.22
2022-11-27T17:44:17.831Z,5.93
2022-11-27T17:46:49.911Z,7.22
2022-11-27T17:49:17.811Z,5.82
2022-11-27T17:51:51.646Z,9.93
2022-11-27T17:54:20.385Z,7.47
2022-11-27T17:56:51.671Z,8.13
2022-11-27T17:59:25.663Z,6.97
2022-11-27T18:01:55.878Z,5.18
2022-11-27T18:04:24.713Z,5.63
2022-11-27T18:06:53.007Z,5.95
2022-11-27T18:09:23.675Z,5.07
2022-11-27T18:11:51.615Z,5.55
2022-11-27T18:14:19.065Z,5.93
2022-11-27T18:16:46.739Z,7.55
2022-11-27T18:19:14.456Z,7.53
2022-11-27T18:21:42.092Z,5.93
2022-11-27T18:24:25.477Z,5.55
2022-11-27T18:27:10.549Z,6.72
2022-11-27T18:29:44.500Z,5.32
2022-11-27T18:32:14.003Z,6.63
2022-11-27T18:34:42.390Z,6.30
2022-11-27T18:37:13.164Z,7.10
2022-11-27T18:39:40.916Z,7.30
2022-11-27T18:42:09.061Z,6.57
2022-11-27T18:44:44.402Z,6.28
2022-11-27T18:47:18.506Z,6.65
2022-11-27T18:49:47.951Z,6.95
2022-11-27T18:52:15.503Z,9.52
2022-11-27T18:54:46.765Z,5.57
2022-11-27T18:57:15.286Z,6.72
2022-11-27T18:59:45.049Z,5.63
2022-11-27T19:02:13.537Z,5.88
2022-11-27T19:04:43.100Z,6.32
2022-11-27T19:07:11.120Z,5.97
2022-11-27T19:09:41.512Z,7.97
2022-11-27T19:12:09.843Z,4.22
2022-11-27T19:14:40.424Z,5.97
2022-11-27T19:17:09.102Z,4.57
2022-11-27T19:20:00.259Z,5.68
2022-11-27T19:22:29.106Z,5.90
2022-11-27T19:25:04.721Z,5.82
2022-11-27T19:27:50.784Z,7.95
2022-11-27T19:30:24.922Z,5.32
2022-11-27T19:32:52.790Z,5.63
2022-11-27T19:35:24.560Z,5.53
2022-11-27T19:37:54.474Z,5.97
2022-11-27T19:40:21.941Z,5.63
2022-11-27T19:42:54.593Z,5.78
2022-11-27T19:45:28.735Z,5.80
2022-11-27T19:47:56.971Z,5.63
2022-11-27T19:50:24.542Z,5.70
2022-11-27T19:52:52.324Z,7.57
2022-11-27T19:55:19.782Z,5.40
2022-11-27T19:57:47.768Z,6.22
2022-11-27T20:00:16.852Z,5.10
2022-11-27T20:02:45.525Z,5.22
2022-11-27T20:05:13.060Z,5.75
2022-11-27T20:07:40.580Z,6.32
2022-11-27T20:10:08.339Z,5.97
2022-11-27T20:12:36.970Z,5.38
2022-11-27T20:15:07.664Z,5.97
2022-11-27T20:17:35.963Z,5.20
2022-11-27T20:20:04.116Z,5.45
2022-11-27T20:22:32.945Z,6.00
2022-11-27T20:25:19.097Z,4.80
2022-11-27T20:27:47.599Z,6.40
2022-11-27T20:30:15.570Z,7.25
2022-11-27T20:32:47.441Z,4.95
2022-11-27T20:35:15.786Z,5.05
2022-11-27T20:37:45.739Z,5.93
2022-11-27T20:40:13.437Z,5.07
2022-11-27T20:42:41.071Z,5.93
2022-11-27T20:45:08.800Z,5.78
2022-11-27T20:47:36.436Z,7.15
2022-11-27T20:50:05.744Z,5.85
2022-11-27T20:52:33.627Z,6.63
2022-11-27T20:55:01.149Z,4.78
2022-11-27T20:57:33.352Z,5.57
2022-11-27T21:00:01.224Z,6.30
2022-11-27T21:02:30.891Z,6.05
2022-11-27T21:04:59.027Z,7.28
2022-11-27T21:07:28.887Z,6.10
2022-11-27T21:09:59.887Z,5.95
2022-11-27T21:12:27.833Z,6.53
2022-11-27T21:14:56.460Z,6.05
2022-11-27T21:17:24.681Z,5.93
2022-11-27T21:19:53.098Z,5.78
2022-11-27T21:22:21.253Z,6.60
2022-11-27T21:24:52.817Z,5.68
2022-11-27T21:27:22.791Z,5.78
2022-11-27T21:29:51.068Z,5.32
2022-11-27T21:32:22.478Z,5.47
2022-11-27T21:34:49.962Z,5.13
2022-11-27T21:37:19.676Z,5.53
2022-11-27T21:39:49.960Z,5.63
2022-11-27T21:42:20.496Z,6.75
2022-11-27T21:44:48.275Z,9.13
2022-11-27T21:47:15.693Z,6.60
2022-11-27T21:49:44.289Z,8.68
2022-11-27T21:52:14.520Z,5.05
2022-11-27T21:54:50.928Z,4.97
2022-11-27T21:57:20.581Z,5.30
2022-11-27T21:59:48.061Z,5.00
2022-11-27T22:02:17.792Z,5.22
2022-11-27T22:04:45.431Z,5.25
2022-11-27T22:07:12.976Z,5.15
2022-11-27T22:09:40.543Z,5.78
2022-11-27T22:12:08.069Z,5.45
2022-11-27T22:14:35.546Z,5.60
2022-11-27T22:17:03.193Z,8.07
2022-11-27T22:19:36.261Z,5.10
2022-11-27T22:22:03.732Z,5.32
2022-11-27T22:24:33.901Z,5.20
2022-11-27T22:27:01.694Z,5.13
2022-11-27T22:29:31.656Z,5.30
2022-11-27T22:31:59.214Z,4.85
2022-11-27T22:34:29.104Z,5.10
2022-11-27T22:36:56.580Z,4.97
2022-11-27T22:39:32.767Z,5.82
2022-11-27T22:42:02.379Z,5.05
2022-11-27T22:44:29.913Z,5.07
2022-11-27T22:46:58.186Z,4.55
2022-11-27T22:49:30.150Z,4.97
2022-11-27T22:51:57.700Z,5.07
2022-11-27T22:54:25.203Z,4.43
2022-11-27T22:56:52.984Z,5.15
2022-11-27T22:59:36.326Z,5.57
2022-11-27T23:02:06.602Z,5.60
2022-11-27T23:04:34.981Z,4.28
2022-11-27T23:07:04.194Z,5.40
2022-11-27T23:09:32.016Z,4.78
2022-11-27T23:12:01.932Z,4.53
2022-11-27T23:14:32.051Z,6.10
2022-11-27T23:16:59.737Z,4.50
2022-11-27T23:19:27.442Z,5.05
2022-11-27T23:21:55.085Z,5.68
2022-11-27T23:24:23.588Z,5.47
2022-11-27T23:26:51.204Z,4.88
2022-11-27T23:29:18.763Z,5.50
2022-11-27T23:31:46.320Z,5.68
2022-11-27T23:34:15.436Z,4.63
2022-11-27T23:36:43.280Z,5.18
2022-11-27T23:39:13.958Z,4.15
2022-11-27T23:41:42.457Z,4.85
2022-11-27T23:44:09.869Z,5.10
2022-11-27T23:46:39.895Z,4.80
2022-11-27T23:49:07.893Z,5.25
2022-11-27T23:51:35.494Z,5.13
2022-11-27T23:54:08.179Z,5.03
2022-11-27T23:56:37.141Z,5.65
2022-11-27T23:59:05.499Z,4.60
